Plaquemine, LA (70764)

5:54 PM CST on January 21, 2017 (GMT -0600)
Evangeline Place | | Change Station

Elev 0 ft 30.27 °N, 91.25 °W | Updated 37 days ago

Overcast
Overcast
59.6 °F
Feels Like 59.6 °F
N
3.0
Wind Variable Wind from NE
Gusts 11.0 mph

Today
High -- | Low -- °F
--% Chance of Precip.
Yesterday
High -- | Low -- °F
Precip. -- in
Pressure 29.49 in
Visibility 10.0 miles
Clouds Few 2000 ft
Dew Point 38 °F
Humidity 45%
Rainfall 0.37 in
Snow Depth Not available.
7:00 AM 5:32 PM
Waning Crescent, 31% visible
SPECI KBTR 212300Z COR 09007KT 10SM FEW020 22/17 A2949 RMK AO2 T02170172 $
Pressure 29.49 in
Visibility 10.0 miles
Clouds Few 2000 ft
Dew Point 38 °F
Humidity 45%
Rainfall 0.37 in
Snow Depth Not available.
7:00 AM 5:32 PM
Waning Crescent, 31% visible
SPECI KBTR 212300Z COR 09007KT 10SM FEW020 22/17 A2949 RMK AO2 T02170172 $

Get Your Daily Forecast Email!

Thanks for signing up!

Be on the lookout for a verification email in your inbox.

You'll start receiving the daily forecast at 8 AM.

×

10-Day Weather Forecast

Almanac

Astronomy

Jan. 21, 2017 Rise Set
Actual Time
Civil Twilight
Nautical Twilight
Astronomical Twilight
Moon
Length of Visible Light
Length of Day
Tomorrow will be .
, % of the Moon is Illuminated

Today's Extremes

State Highs State Lows

Community

WunderPhotos

Upload Photos

1,962,540 photos uploaded!

WunderBlog® & News

Nearby

Air Quality

  Air Quality AQ Index Pollutant
Not available.

Snow Depth

Station Depth Elevation

Earthquake Activity

City Distance Mag. Time & Date
Minimum magnitude displayed is 2.5.

Coastal Water Temperatures

Place Temperature

Stations

Nearby Weather Stations

Station Location Temp. Windchill Dew Point Humidity Wind Precip. Elev Updated Type
                   

Watches & Warnings

Tornado Watch
Issued: 5:43 PM CST Jan. 21, 2017 – National Weather Service

Tornado Watch 15 remains in effect until 900 PM CST for the
following locations


La
. Louisiana parishes included are

Acadia Ascension Avoyelles
Catahoula Concordia East Baton Rouge
East Feliciana Evangeline Iberville
Jefferson Lafayette Livingston
Orleans Plaquemines Pointe Coupee
Rapides St. Bernard St. Charles
St. Helena St. James St. John The Baptist
St. Landry St. Martin St. Tammany
Tangipahoa Washington West Baton Rouge
West Feliciana




Small Craft Advisory
Issued: 3:35 PM CST Jan. 21, 2017 – National Weather Service

... Small Craft Advisory remains in effect from 3 am to 6 PM CST
Sunday...

* winds... winds increasing to 15 to 25 knots with gusts to 40
knots.

* Waves/seas... extremely rough.

Precautionary/preparedness actions...

A Small Craft Advisory means that wind speeds of 21 to 33 knots
are expected to produce hazardous wave conditions to small craft.
Inexperienced mariners... especially those operating smaller
vessels should avoid navigating in these conditions.



13